createdAt,value
2022-10-05T00:01:14.261Z,6.90
2022-10-05T00:03:41.542Z,7.57
2022-10-05T00:06:10.407Z,6.47
2022-10-05T00:08:37.688Z,10.85
2022-10-05T00:11:08.379Z,11.13
2022-10-05T00:13:35.774Z,9.23
2022-10-05T00:16:12.359Z,10.82
2022-10-05T00:18:40.486Z,11.13
2022-10-05T00:21:18.665Z,6.97
2022-10-05T00:23:45.995Z,9.60
2022-10-05T00:26:33.564Z,5.93
2022-10-05T00:29:02.294Z,7.70
2022-10-05T00:31:33.363Z,6.20
2022-10-05T00:34:00.728Z,7.38
2022-10-05T00:36:28.021Z,7.07
2022-10-05T00:38:55.605Z,7.40
2022-10-05T00:41:30.579Z,5.72
2022-10-05T00:44:00.878Z,7.20
2022-10-05T00:46:47.293Z,6.97
2022-10-05T00:49:25.023Z,7.32
2022-10-05T00:52:00.594Z,5.32
2022-10-05T00:54:44.291Z,5.68
2022-10-05T00:57:21.760Z,4.63
2022-10-05T01:00:01.044Z,5.00
2022-10-05T01:02:39.854Z,6.30
2022-10-05T01:05:17.279Z,4.68
2022-10-05T01:07:44.569Z,5.57
2022-10-05T01:10:30.716Z,5.03
2022-10-05T01:13:00.985Z,5.25
2022-10-05T01:15:33.577Z,4.53
2022-10-05T01:18:08.152Z,10.57
2022-10-05T01:20:40.133Z,7.18
2022-10-05T01:23:26.319Z,5.67
2022-10-05T01:26:05.785Z,6.88
2022-10-05T01:28:36.302Z,4.57
2022-10-05T01:31:03.698Z,7.90
2022-10-05T01:33:40.229Z,7.22
2022-10-05T01:36:14.868Z,6.70
2022-10-05T01:39:01.037Z,9.05
2022-10-05T01:41:34.215Z,7.75
2022-10-05T01:44:12.627Z,9.77
2022-10-05T01:46:44.821Z,7.82
2022-10-05T01:49:15.289Z,10.33
2022-10-05T01:51:45.613Z,8.45
2022-10-05T01:54:31.769Z,8.32
2022-10-05T01:57:28.474Z,10.73
2022-10-05T02:00:04.828Z,9.55
2022-10-05T02:02:53.606Z,10.10
2022-10-05T02:05:33.785Z,8.10
2022-10-05T02:08:02.573Z,7.93
2022-10-05T02:10:33.583Z,11.07
2022-10-05T02:13:21.123Z,11.25
2022-10-05T02:15:57.793Z,10.23
2022-10-05T02:18:29.255Z,9.45
2022-10-05T02:21:01.517Z,10.55
2022-10-05T02:23:33.337Z,12.75
2022-10-05T02:26:01.781Z,9.88
2022-10-05T02:28:32.983Z,11.03
2022-10-05T02:31:09.827Z,8.85
2022-10-05T02:33:37.437Z,10.57
2022-10-05T02:36:13.889Z,8.55
2022-10-05T02:38:53.456Z,9.35
2022-10-05T02:41:21.150Z,10.27
2022-10-05T02:43:48.395Z,12.48
2022-10-05T02:46:27.484Z,11.93
2022-10-05T02:49:10.854Z,12.20
2022-10-05T02:51:47.702Z,11.48
2022-10-05T02:54:18.002Z,12.17
2022-10-05T02:56:54.444Z,11.18
2022-10-05T02:59:27.369Z,8.98
2022-10-05T03:02:02.948Z,14.93
2022-10-05T03:04:39.481Z,11.15
2022-10-05T03:07:13.376Z,11.10
2022-10-05T03:10:13.597Z,14.45
2022-10-05T03:12:50.181Z,10.68
2022-10-05T03:15:22.104Z,14.52
2022-10-05T03:18:04.822Z,10.07
2022-10-05T03:20:49.843Z,9.83
2022-10-05T03:23:35.905Z,11.35
2022-10-05T03:26:27.894Z,10.98
2022-10-05T03:29:14.262Z,14.07
2022-10-05T03:32:02.944Z,11.73
2022-10-05T03:34:35.807Z,8.73
2022-10-05T03:37:03.420Z,11.85
2022-10-05T03:39:36.787Z,7.88
2022-10-05T03:42:04.096Z,9.68
2022-10-05T03:44:51.726Z,11.65
2022-10-05T03:47:34.328Z,10.33
2022-10-05T03:50:08.931Z,11.02
2022-10-05T03:52:42.067Z,9.60
2022-10-05T03:55:29.563Z,10.48
2022-10-05T03:57:59.333Z,10.07
2022-10-05T04:00:29.199Z,8.13
2022-10-05T04:03:08.390Z,9.43
2022-10-05T04:05:43.690Z,11.10
2022-10-05T04:08:32.178Z,9.55
2022-10-05T04:11:02.563Z,8.23
2022-10-05T04:13:39.163Z,9.20
2022-10-05T04:16:12.084Z,7.65
2022-10-05T04:18:46.121Z,12.32
2022-10-05T04:21:23.484Z,9.15
2022-10-05T04:23:52.300Z,7.03
2022-10-05T04:26:25.567Z,6.00
2022-10-05T04:28:59.754Z,7.47
2022-10-05T04:31:33.349Z,9.98
2022-10-05T04:34:05.669Z,8.95
2022-10-05T04:36:39.604Z,8.82
2022-10-05T04:39:17.552Z,6.33
2022-10-05T04:41:49.673Z,5.72
2022-10-05T04:44:31.484Z,5.20
2022-10-05T04:47:11.485Z,4.18
2022-10-05T04:49:38.834Z,5.28
2022-10-05T04:52:17.189Z,4.87
2022-10-05T04:55:03.485Z,3.47
2022-10-05T04:57:37.358Z,4.10
2022-10-05T05:00:09.170Z,2.72
2022-10-05T05:02:40.846Z,3.13
2022-10-05T05:05:17.587Z,3.30
2022-10-05T05:07:48.094Z,2.72
2022-10-05T05:10:34.148Z,2.75
2022-10-05T05:13:17.889Z,3.25
2022-10-05T05:15:46.601Z,2.90
2022-10-05T05:18:14.063Z,2.30
2022-10-05T05:20:41.397Z,2.47
2022-10-05T05:23:21.013Z,3.55
2022-10-05T05:25:51.380Z,2.20
2022-10-05T05:28:35.316Z,4.07
2022-10-05T05:31:11.353Z,1.93
2022-10-05T05:33:58.125Z,2.50
2022-10-05T05:36:26.428Z,2.25
2022-10-05T05:39:17.639Z,1.90
2022-10-05T05:41:53.861Z,1.98
2022-10-05T05:44:24.524Z,2.50
2022-10-05T05:47:04.492Z,2.22
2022-10-05T05:49:38.901Z,1.73
2022-10-05T05:52:18.876Z,1.95
2022-10-05T05:55:19.089Z,2.60
2022-10-05T05:58:01.384Z,1.83
2022-10-05T06:00:32.288Z,2.40
2022-10-05T06:03:11.870Z,2.88
2022-10-05T06:05:43.175Z,2.05
2022-10-05T06:08:31.603Z,2.80
2022-10-05T06:11:20.789Z,3.07
2022-10-05T06:13:48.402Z,2.47
2022-10-05T06:16:18.545Z,2.25
2022-10-05T06:18:48.946Z,2.63
2022-10-05T06:21:26.093Z,2.58
2022-10-05T06:24:03.818Z,2.20
2022-10-05T06:26:50.607Z,2.40
2022-10-05T06:29:20.970Z,3.35
2022-10-05T06:31:59.181Z,3.20
2022-10-05T06:34:37.224Z,3.80
2022-10-05T06:37:13.720Z,4.60
2022-10-05T06:39:58.711Z,2.38
2022-10-05T06:42:41.582Z,4.55
2022-10-05T06:45:47.556Z,2.92
2022-10-05T06:48:40.804Z,2.75
2022-10-05T06:51:49.078Z,5.77
2022-10-05T06:54:29.433Z,2.65
2022-10-05T06:57:00.727Z,4.30
2022-10-05T06:59:28.100Z,3.55
2022-10-05T07:02:14.593Z,2.90
2022-10-05T07:04:54.073Z,3.40
2022-10-05T07:07:21.492Z,2.88
2022-10-05T07:09:56.066Z,2.83
2022-10-05T07:12:26.524Z,3.10
2022-10-05T07:15:00.013Z,3.42
2022-10-05T07:17:39.666Z,6.73
2022-10-05T07:20:25.579Z,2.70
2022-10-05T07:22:56.410Z,3.10
2022-10-05T07:25:28.512Z,3.35
2022-10-05T07:27:57.650Z,2.70
2022-10-05T07:30:28.297Z,4.20
2022-10-05T07:33:12.128Z,4.15
2022-10-05T07:36:15.054Z,6.70
2022-10-05T07:38:42.448Z,6.13
2022-10-05T07:41:16.731Z,6.07
2022-10-05T07:44:02.124Z,3.73
2022-10-05T07:46:34.157Z,3.35
2022-10-05T07:49:10.778Z,3.33
2022-10-05T07:51:45.028Z,3.75
2022-10-05T07:54:31.621Z,5.25
2022-10-05T07:57:07.012Z,5.20
2022-10-05T07:59:34.789Z,3.20
2022-10-05T08:02:12.773Z,4.80
2022-10-05T08:04:52.364Z,3.47
2022-10-05T08:07:20.437Z,4.10
2022-10-05T08:10:11.126Z,5.60
2022-10-05T08:12:38.453Z,3.50
2022-10-05T08:15:15.352Z,4.00
2022-10-05T08:18:00.034Z,3.28
2022-10-05T08:20:41.083Z,3.58
2022-10-05T08:23:14.421Z,4.80
2022-10-05T08:25:46.986Z,3.75
2022-10-05T08:28:33.371Z,5.30
2022-10-05T08:31:04.715Z,3.15
2022-10-05T08:33:36.782Z,4.53
2022-10-05T08:36:09.503Z,4.13
2022-10-05T08:38:37.122Z,8.52
2022-10-05T08:41:07.542Z,3.30
2022-10-05T08:43:56.379Z,3.22
2022-10-05T08:46:33.141Z,4.43
2022-10-05T08:49:04.626Z,3.00
2022-10-05T08:51:31.939Z,2.75
2022-10-05T08:53:59.197Z,4.47
2022-10-05T08:56:28.760Z,4.38
2022-10-05T08:59:11.790Z,5.03
2022-10-05T09:01:39.186Z,3.57
2022-10-05T09:04:06.396Z,4.00
2022-10-05T09:06:45.920Z,3.15
2022-10-05T09:09:36.893Z,3.50
2022-10-05T09:12:10.332Z,3.17
2022-10-05T09:15:01.317Z,3.27
2022-10-05T09:17:44.111Z,2.72
2022-10-05T09:20:17.214Z,2.97
2022-10-05T09:22:44.511Z,2.38
2022-10-05T09:25:34.277Z,3.15
2022-10-05T09:28:21.858Z,2.67
2022-10-05T09:30:49.196Z,2.13
2022-10-05T09:33:35.492Z,2.78
2022-10-05T09:36:12.438Z,4.78
2022-10-05T09:38:51.957Z,4.63
2022-10-05T09:41:37.992Z,1.83
2022-10-05T09:44:14.714Z,2.85
2022-10-05T09:46:48.811Z,3.17
2022-10-05T09:49:19.156Z,4.15
2022-10-05T09:51:58.770Z,3.00
2022-10-05T09:54:38.437Z,3.73
2022-10-05T09:57:24.710Z,3.25
2022-10-05T10:00:26.444Z,6.20
2022-10-05T10:02:53.812Z,4.80
2022-10-05T10:05:31.338Z,4.45
2022-10-05T10:08:15.411Z,3.73
2022-10-05T10:11:07.800Z,2.28
2022-10-05T10:13:41.227Z,6.80
2022-10-05T10:16:16.031Z,4.18
2022-10-05T10:19:02.353Z,3.20
2022-10-05T10:21:30.119Z,2.60
2022-10-05T10:24:01.809Z,3.85
2022-10-05T10:26:47.874Z,4.75
2022-10-05T10:29:33.857Z,3.45
2022-10-05T10:32:19.821Z,7.95
2022-10-05T10:34:56.473Z,3.60
2022-10-05T10:37:42.816Z,7.30
2022-10-05T10:40:28.838Z,2.80
2022-10-05T10:43:03.846Z,2.50
2022-10-05T10:45:49.669Z,4.30
2022-10-05T10:48:20.075Z,3.90
2022-10-05T10:50:50.676Z,2.95
2022-10-05T10:53:36.282Z,2.47
2022-10-05T10:56:03.555Z,3.70
2022-10-05T10:58:49.699Z,2.60
2022-10-05T11:01:38.374Z,3.57
2022-10-05T11:04:24.516Z,3.85
2022-10-05T11:06:57.929Z,3.78
2022-10-05T11:09:44.092Z,3.13
2022-10-05T11:12:34.565Z,8.20
2022-10-05T11:15:08.084Z,4.70
2022-10-05T11:17:50.728Z,3.08
2022-10-05T11:20:21.229Z,5.03
2022-10-05T11:23:07.444Z,5.97
2022-10-05T11:25:47.771Z,4.10
2022-10-05T11:28:35.658Z,3.27
2022-10-05T11:31:22.219Z,3.75
2022-10-05T11:34:16.650Z,7.07
2022-10-05T11:37:04.125Z,4.45
2022-10-05T11:39:33.515Z,5.72
2022-10-05T11:42:13.118Z,6.07
2022-10-05T11:44:59.797Z,3.25
2022-10-05T11:47:46.704Z,8.30
2022-10-05T11:50:28.620Z,9.15
2022-10-05T11:53:19.170Z,3.95
2022-10-05T11:55:52.529Z,8.93
2022-10-05T11:58:42.707Z,6.78
2022-10-05T12:01:18.882Z,5.78
2022-10-05T12:03:46.346Z,2.97
2022-10-05T12:06:23.466Z,6.53
2022-10-05T12:09:03.999Z,3.03
2022-10-05T12:11:40.475Z,2.88
2022-10-05T12:14:12.661Z,4.78
2022-10-05T12:17:00.241Z,4.25
2022-10-05T12:19:29.867Z,4.88
2022-10-05T12:22:10.682Z,8.77
2022-10-05T12:24:37.937Z,3.92
2022-10-05T12:27:08.799Z,8.63
2022-10-05T12:29:39.686Z,5.88
2022-10-05T12:32:25.770Z,3.25
2022-10-05T12:35:02.119Z,5.50
2022-10-05T12:37:42.080Z,3.97
2022-10-05T12:40:09.882Z,3.45
2022-10-05T12:43:02.200Z,2.60
2022-10-05T12:45:47.444Z,6.93
2022-10-05T12:48:33.653Z,3.20
2022-10-05T12:51:13.018Z,3.05
2022-10-05T12:53:43.706Z,3.65
2022-10-05T12:56:26.455Z,6.00
2022-10-05T12:59:00.805Z,5.80
2022-10-05T13:01:28.210Z,7.63
2022-10-05T13:04:02.118Z,7.72
2022-10-05T13:06:37.467Z,3.33
2022-10-05T13:09:10.155Z,3.83
2022-10-05T13:11:42.998Z,3.30
2022-10-05T13:14:18.747Z,7.87
2022-10-05T13:16:55.175Z,5.85
2022-10-05T13:19:34.795Z,3.50
2022-10-05T13:22:17.459Z,4.47
2022-10-05T13:24:47.729Z,5.60
2022-10-05T13:27:19.342Z,3.27
2022-10-05T13:29:49.896Z,5.97
2022-10-05T13:32:22.175Z,3.72
2022-10-05T13:34:55.048Z,5.40
2022-10-05T13:37:43.327Z,5.28
2022-10-05T13:40:29.584Z,3.70
2022-10-05T13:43:20.348Z,3.97
2022-10-05T13:45:57.041Z,5.32
2022-10-05T13:48:24.738Z,5.10
2022-10-05T13:50:52.077Z,3.63
2022-10-05T13:53:30.900Z,3.87
2022-10-05T13:56:17.188Z,3.08
2022-10-05T13:58:47.691Z,3.80
2022-10-05T14:01:22.645Z,5.28
2022-10-05T14:04:06.603Z,2.72
2022-10-05T14:06:35.894Z,3.57
2022-10-05T14:09:03.302Z,5.15
2022-10-05T14:11:31.985Z,4.10
2022-10-05T14:14:05.644Z,3.05
2022-10-05T14:16:35.489Z,4.43
2022-10-05T14:19:18.756Z,6.20
2022-10-05T14:21:49.862Z,6.75
2022-10-05T14:24:43.188Z,4.97
2022-10-05T14:27:19.112Z,4.20
2022-10-05T14:29:53.162Z,3.75
2022-10-05T14:32:23.074Z,3.60
2022-10-05T14:35:09.396Z,3.92
2022-10-05T14:37:44.128Z,2.63
2022-10-05T14:40:40.884Z,2.45
2022-10-05T14:43:17.430Z,3.58
2022-10-05T14:45:55.205Z,4.77
2022-10-05T14:48:23.084Z,3.05
2022-10-05T14:50:55.096Z,3.63
2022-10-05T14:53:24.992Z,4.07
2022-10-05T14:56:11.212Z,3.28
2022-10-05T14:58:46.334Z,3.37
2022-10-05T15:01:35.232Z,2.75
2022-10-05T15:04:21.439Z,3.83
2022-10-05T15:07:00.626Z,2.55
2022-10-05T15:09:38.043Z,4.82
2022-10-05T15:12:05.481Z,6.10
2022-10-05T15:14:34.720Z,4.03
2022-10-05T15:17:04.568Z,4.45
2022-10-05T15:19:45.357Z,5.07
2022-10-05T15:22:31.822Z,5.13
2022-10-05T15:25:03.709Z,2.67
2022-10-05T15:27:31.063Z,5.50
2022-10-05T15:30:04.175Z,2.42
2022-10-05T15:32:46.559Z,1.98
2022-10-05T15:35:35.353Z,2.38
2022-10-05T15:38:02.808Z,2.30
2022-10-05T15:40:50.053Z,1.88
2022-10-05T15:43:19.752Z,3.88
2022-10-05T15:45:57.793Z,3.72
2022-10-05T15:48:29.916Z,1.88
2022-10-05T15:51:00.418Z,5.27
2022-10-05T15:53:33.270Z,3.42
2022-10-05T15:56:22.923Z,3.40
2022-10-05T15:58:53.269Z,2.90
2022-10-05T16:01:50.125Z,5.63
2022-10-05T16:04:31.857Z,2.27
2022-10-05T16:07:19.043Z,4.97
2022-10-05T16:09:52.492Z,4.68
2022-10-05T16:12:19.947Z,2.88
2022-10-05T16:14:47.263Z,4.43
2022-10-05T16:17:26.650Z,5.33
2022-10-05T16:19:53.959Z,2.08
2022-10-05T16:22:25.281Z,3.70
2022-10-05T16:24:52.528Z,4.47
2022-10-05T16:27:36.078Z,3.08
2022-10-05T16:30:08.685Z,3.67
2022-10-05T16:32:43.250Z,3.10
2022-10-05T16:35:18.508Z,4.60
2022-10-05T16:37:49.002Z,5.47
2022-10-05T16:40:31.632Z,5.15
2022-10-05T16:43:02.113Z,2.13
2022-10-05T16:45:45.616Z,2.90
2022-10-05T16:48:36.560Z,3.08
2022-10-05T16:51:03.827Z,3.67
2022-10-05T16:53:40.287Z,4.50
2022-10-05T16:56:11.263Z,3.47
2022-10-05T16:58:38.504Z,10.90
2022-10-05T17:01:08.886Z,5.45
2022-10-05T17:03:40.108Z,2.83
2022-10-05T17:06:28.058Z,2.78
2022-10-05T17:08:55.426Z,3.20
2022-10-05T17:11:25.722Z,3.17
2022-10-05T17:14:06.290Z,6.45
2022-10-05T17:16:43.556Z,6.15
2022-10-05T17:19:19.256Z,8.25
2022-10-05T17:22:00.926Z,5.50
2022-10-05T17:24:37.346Z,3.17
2022-10-05T17:27:23.536Z,3.22
2022-10-05T17:29:55.132Z,4.70
2022-10-05T17:32:22.397Z,3.58
2022-10-05T17:35:01.578Z,3.23
2022-10-05T17:37:31.970Z,3.03
2022-10-05T17:39:59.375Z,5.28
2022-10-05T17:42:26.757Z,3.83
2022-10-05T17:45:02.592Z,3.63
2022-10-05T17:47:48.718Z,3.00
2022-10-05T17:50:56.223Z,4.07
2022-10-05T17:53:54.477Z,3.70
2022-10-05T17:56:22.803Z,4.07
2022-10-05T17:58:54.483Z,3.55
2022-10-05T18:01:31.275Z,2.20
2022-10-05T18:04:13.862Z,3.22
2022-10-05T18:07:07.537Z,2.97
2022-10-05T18:09:37.575Z,3.38
2022-10-05T18:12:06.132Z,6.15
2022-10-05T18:14:52.268Z,6.17
2022-10-05T18:17:41.249Z,2.95
2022-10-05T18:20:14.869Z,3.30
2022-10-05T18:22:46.436Z,2.88
2022-10-05T18:25:27.131Z,3.08
2022-10-05T18:27:54.559Z,2.63
2022-10-05T18:30:23.938Z,2.70
2022-10-05T18:32:56.806Z,4.78
2022-10-05T18:35:27.139Z,4.43
2022-10-05T18:38:17.604Z,5.90
2022-10-05T18:40:44.934Z,3.63
2022-10-05T18:43:27.107Z,3.88
2022-10-05T18:46:13.476Z,10.10
2022-10-05T18:48:53.085Z,5.05
2022-10-05T18:51:20.416Z,5.38
2022-10-05T18:53:54.015Z,6.60
2022-10-05T18:56:39.395Z,4.57
2022-10-05T18:59:06.652Z,4.00
2022-10-05T19:01:53.067Z,5.15
2022-10-05T19:04:22.387Z,2.55
2022-10-05T19:06:52.557Z,2.90
2022-10-05T19:09:38.891Z,4.15
2022-10-05T19:12:15.513Z,2.88
2022-10-05T19:14:51.905Z,4.60
2022-10-05T19:17:26.690Z,3.50
2022-10-05T19:20:13.024Z,2.77
2022-10-05T19:22:49.474Z,4.63
2022-10-05T19:25:37.936Z,7.43
2022-10-05T19:28:15.322Z,6.00
2022-10-05T19:30:52.058Z,4.88
2022-10-05T19:33:22.567Z,6.43
2022-10-05T19:36:02.307Z,4.63
2022-10-05T19:38:42.106Z,5.00
2022-10-05T19:41:32.975Z,3.92
2022-10-05T19:44:00.296Z,2.90
2022-10-05T19:46:44.733Z,1.17
2022-10-05T19:49:12.171Z,2.53
2022-10-05T19:51:51.874Z,1.35
2022-10-05T19:54:25.236Z,2.55
2022-10-05T19:56:53.493Z,2.42
2022-10-05T19:59:22.314Z,0.90
2022-10-05T20:01:56.953Z,1.95
2022-10-05T20:04:38.177Z,1.67
2022-10-05T20:07:05.642Z,2.90
2022-10-05T20:09:51.868Z,2.80
2022-10-05T20:12:22.565Z,2.87
2022-10-05T20:15:24.103Z,2.70
2022-10-05T20:18:12.773Z,3.63
2022-10-05T20:20:45.782Z,4.80
2022-10-05T20:23:20.797Z,2.72
2022-10-05T20:26:08.340Z,2.20
2022-10-05T20:28:35.741Z,2.80
2022-10-05T20:31:03.384Z,2.83
2022-10-05T20:33:30.734Z,4.57
2022-10-05T20:35:58.699Z,4.43
2022-10-05T20:38:26.295Z,5.33
2022-10-05T20:40:54.045Z,5.05
2022-10-05T20:43:21.271Z,6.10
2022-10-05T20:45:48.476Z,4.75
2022-10-05T20:48:16.608Z,5.10
2022-10-05T20:50:44.354Z,5.67
2022-10-05T20:53:12.174Z,6.07
2022-10-05T20:55:39.573Z,1.95
2022-10-05T20:58:08.918Z,3.97
2022-10-05T21:00:54.828Z,1.35
2022-10-05T21:03:22.893Z,1.63
2022-10-05T21:05:50.402Z,0.93
2022-10-05T21:08:17.854Z,1.33
2022-10-05T21:10:45.164Z,1.08
2022-10-05T21:13:12.435Z,1.47
2022-10-05T21:15:39.679Z,0.80
2022-10-05T21:18:06.956Z,2.13
2022-10-05T21:20:34.551Z,1.20
2022-10-05T21:23:01.850Z,1.70
2022-10-05T21:25:29.232Z,0.77
2022-10-05T21:27:56.486Z,1.58
2022-10-05T21:30:23.826Z,1.55
2022-10-05T21:32:51.157Z,1.35
2022-10-05T21:35:18.408Z,1.45
2022-10-05T21:37:45.683Z,1.03
2022-10-05T21:40:12.910Z,3.80
2022-10-05T21:42:40.281Z,2.67
2022-10-05T21:45:07.908Z,2.53
2022-10-05T21:47:35.472Z,2.60
2022-10-05T21:50:05.226Z,1.43
2022-10-05T21:52:32.731Z,2.88
2022-10-05T21:55:00.009Z,2.72
2022-10-05T21:57:27.314Z,2.72
2022-10-05T21:59:55.036Z,1.95
2022-10-05T22:02:22.265Z,3.30
2022-10-05T22:04:49.783Z,1.35
2022-10-05T22:07:18.557Z,2.35
2022-10-05T22:09:49.426Z,1.85
2022-10-05T22:12:17.157Z,2.72
2022-10-05T22:14:44.450Z,2.40
2022-10-05T22:17:14.682Z,2.78
2022-10-05T22:19:42.005Z,2.05
2022-10-05T22:22:11.928Z,2.90
2022-10-05T22:24:39.685Z,7.18
2022-10-05T22:27:07.008Z,3.07
2022-10-05T22:29:34.464Z,3.38
2022-10-05T22:32:01.779Z,5.88
2022-10-05T22:34:29.171Z,3.95
2022-10-05T22:36:56.455Z,2.90
2022-10-05T22:39:23.820Z,5.97
2022-10-05T22:41:51.109Z,6.45
2022-10-05T22:44:18.516Z,8.35
2022-10-05T22:46:45.846Z,10.00
2022-10-05T22:49:13.194Z,8.48
2022-10-05T22:51:40.396Z,3.97
2022-10-05T22:54:07.873Z,6.13
2022-10-05T22:56:35.090Z,8.85
2022-10-05T22:59:02.307Z,10.65
2022-10-05T23:01:29.597Z,6.72
2022-10-05T23:03:57.402Z,14.43
2022-10-05T23:06:26.614Z,8.48
2022-10-05T23:08:54.526Z,9.05
2022-10-05T23:11:23.739Z,11.07
2022-10-05T23:13:55.763Z,4.65
2022-10-05T23:16:24.737Z,8.77
2022-10-05T23:18:53.083Z,11.10
2022-10-05T23:21:21.184Z,12.50
2022-10-05T23:23:51.023Z,6.93
2022-10-05T23:26:22.761Z,9.13
2022-10-05T23:28:50.382Z,8.03
2022-10-05T23:31:22.270Z,8.82
2022-10-05T23:33:49.874Z,8.70
2022-10-05T23:36:18.886Z,8.77
2022-10-05T23:38:46.523Z,7.10
2022-10-05T23:41:13.959Z,11.67
2022-10-05T23:43:41.211Z,9.35
2022-10-05T23:46:08.758Z,6.90
2022-10-05T23:48:39.255Z,10.98
2022-10-05T23:51:07.109Z,10.55
2022-10-05T23:53:34.611Z,14.47
2022-10-05T23:56:01.912Z,7.15
2022-10-05T23:58:29.661Z,10.27
